Station TPXA2 - Tree Point, AK Image indicating link to RSS feed of recent meteorological observations for station TPXA2


Conditions at TPXA2 as of
(9:32 am AKDT)
1732 GMT on 08/31/2026:
     

Click on the graph icon in the table below to see a time series plot of the last five days of that observation.

5-day plot - Wind Direction Wind Direction (WDIR):NNW ( 340 deg true )
5-day plot - Wind Speed Wind Speed (WSPD): 7.0 kts
5-day plot - Wind Gust Wind Gust (GST): 8.9 kts
5-day plot - Atmospheric Pressure Atmospheric Pressure (PRES):29.72 in
5-day plot - Air Temperature Air Temperature (ATMP): 53.8 °F
5-day plot - Dew Point Dew Point (DEWP): 53.4 °F
5-day plot - Wind Speed at 10 Meters Wind Speed at 10 meters (WSPD10M): 7.8 kts
5-day plot - Wind Speed at 20 Meters Wind Speed at 20 meters (WSPD20M): 7.8 kts
5-day plot -  Wind Speed, Wind Gust and Atmospheric Pressure Combined plot of Wind Speed, Gust, and Air Pressure
Previous observations
TIME
(AKDT)
5-day plot - Wind Direction
WDIR
 
5-day plot - Wind Speed
WSPD
kts
5-day plot - Wind Gust
GST
kts
5-day plot - Wave Height
WVHT
ft
5-day plot - Dominant Wave Period
DPD
sec
5-day plot - Average Wave Period
APD
sec
5-day plot - Mean Wave Direction
MWD
 
5-day plot - Atmospheric Pressure
PRES
in
5-day plot - Pressure Tendency
PTDY
in
5-day plot - Air Temperature
ATMP
°F
5-day plot - Water Temperature
WTMP
°F
5-day plot - Dew Point
DEWP
°F
5-day plot - Salinity
SAL
psu
5-day plot - Visibility
VIS
nmi
5-day plot - Tide (above MLLW)
TIDE
ft
2026-08-31 09:22 amNNW 8.9 11.1----29.72- 53.6- 53.2---
2026-08-31 09:12 amNNW 8.9 11.1----29.72- 53.8- 53.4---
2026-08-31 09:02 amNNW 9.9 13.0----29.72- 53.6- 53.2---
2026-08-31 08:52 amNNW 12.0 14.0----29.71- 53.4- 53.1---
2026-08-31 08:42 amNNW 12.0 15.0----29.71- 53.8- 53.4---
2026-08-31 08:32 amNNW 12.0 15.9----29.71- 53.8- 53.4---
2026-08-31 08:22 amNNW 12.0 15.9----29.71- 53.4- 53.1---
2026-08-31 08:12 amNNW 11.1 14.0----29.71- 54.0- 53.6---
2026-08-31 08:02 amNNW 8.9 11.1----29.71- 54.0- 53.6---
2026-08-31 07:52 amNNW 9.9 13.0----29.71- 54.0- 53.6---
2026-08-31 07:42 amNNW 9.9 14.0----29.71- 54.0- 53.6---
2026-08-31 07:32 amNNW 8.0 11.1----29.71- 54.1- 53.8---
2026-08-31 07:22 amNNW 7.0 8.9----29.71- 54.3- 54.0---
2026-08-31 07:12 amNNW 7.0 8.9----29.71- 54.3- 54.0---
2026-08-31 07:02 amNNW 7.0 8.0----29.71- 54.3- 54.0---
2026-08-31 06:52 amNNW 5.1 7.0----29.71- 54.3- 54.0---
2026-08-31 06:42 amNNW 5.1 6.0----29.71- 54.3- 54.0---
2026-08-31 06:32 amNNW 4.1 5.1----29.71- 54.3- 54.0---
2026-08-31 06:22 amNNW 2.9 4.1----29.71- 54.3- 54.0---
2026-08-31 06:12 amNNW 2.9 5.1----29.71- 54.3- 54.0---
2026-08-31 06:02 am NW 2.9 4.1----29.71- 54.3- 54.0---
2026-08-31 05:52 amNNW 1.9 2.9----29.71- 54.3- 54.0---
2026-08-31 05:42 amNNW 1.0 1.9----29.72- 54.3- 54.0---
2026-08-31 05:32 amNNW 1.9 1.9----29.72- 54.1- 53.8---
2026-08-31 05:22 amNNW 1.9 2.9----29.72- 54.1- 53.8---
2026-08-31 05:12 amNNW 1.9 2.9----29.73- 54.1- 53.8---
2026-08-31 05:02 amNNW 2.9 4.1----29.73- 54.1- 53.8---
2026-08-31 04:52 amNNW 2.9 2.9----29.73- 54.1- 53.8---
2026-08-31 04:42 amNNW 2.9 2.9----29.74- 54.1- 53.8---
2026-08-31 04:32 amNNW 1.9 2.9----29.74- 54.1- 53.8---
2026-08-31 04:22 amNNW 1.9 2.9----29.74- 54.1- 53.6---
2026-08-31 04:12 amNNW 1.0 1.9----29.75- 54.3- 53.8---
2026-08-31 04:02 am N 1.0 1.9----29.75- 54.3- 53.8---
2026-08-31 03:52 am- 0.0 1.9----29.75- 54.3- 53.8---
2026-08-31 03:42 am- 0.0 2.9----29.75- 54.3- 53.8---
2026-08-31 03:32 am N 1.0 4.1----29.75- 54.3- 53.8---
2026-08-31 03:22 am N 4.1 5.1----29.76- 54.1- 53.6---
2026-08-31 03:12 amNNW 4.1 6.0----29.76- 54.1- 53.6---
2026-08-31 03:02 am N 5.1 7.0----29.76- 54.1- 53.6---
2026-08-31 02:52 am N 5.1 6.0----29.76- 54.1- 53.6---
2026-08-31 02:42 am N 6.0 6.0----29.77- 54.1- 53.6---
2026-08-31 02:32 amNNW 5.1 6.0----29.77- 54.1- 53.6---
2026-08-31 02:22 am N 5.1 6.0----29.77- 54.1- 53.6---
2026-08-31 02:12 amNNW 5.1 6.0----29.78- 54.1- 53.6---
2026-08-31 02:02 amNNW 5.1 5.1----29.78- 54.1- 53.6---
2026-08-31 01:52 amNNW 4.1 5.1----29.78- 54.3- 53.8---
2026-08-31 01:42 amNNW 2.9 5.1----29.78- 54.3- 53.8---
2026-08-31 01:32 amNNW 1.9 2.9----29.78- 54.3- 53.8---
2026-08-31 01:22 am NW 1.9 2.9----29.79- 54.5- 54.0---
2026-08-31 01:12 am NW 1.0 1.9----29.79- 54.5- 54.0---
2026-08-31 01:02 am- 0.0 1.0----29.79- 54.9- 54.3---
2026-08-31 12:52 am- 0.0 1.0----29.79- 54.7- 54.1---
2026-08-31 12:42 am- 0.0 1.0----29.80- 54.7- 54.1---
2026-08-31 12:32 am- 0.0 1.0----29.80- 54.7- 54.1---
2026-08-31 12:22 am N 1.0 2.9----29.80- 54.5- 54.0---
2026-08-31 12:12 amNNW 1.9 2.9----29.80- 54.3- 53.8---
2026-08-31 12:02 am NW 1.9 1.9----29.80- 54.5- 54.0---
2026-08-30 11:52 pmNNW 1.0 1.9----29.81- 54.5- 54.0---
2026-08-30 11:42 pm SE 1.0 1.9----29.81- 54.7- 54.1---
2026-08-30 11:32 pmSSE 1.0 1.9----29.81- 54.5- 53.6---
2026-08-30 11:22 pm- 0.0 1.0----29.81- 54.7- 53.8---
2026-08-30 11:12 pm- 0.0 1.9----29.81- 54.5- 53.6---
2026-08-30 11:02 pm- 0.0 1.0----29.82- 54.5- 53.6---
2026-08-30 10:52 pm- 0.0 1.0----29.82- 54.5- 53.6---
2026-08-30 10:42 pm- 0.0 1.9----29.82- 54.3- 53.4---
2026-08-30 10:32 pmNNW 1.9 2.9----29.82- 54.1- 53.2---
2026-08-30 10:22 pm N 1.9 4.1----29.83- 54.3- 53.4---
2026-08-30 10:12 pm N 2.9 6.0----29.83- 54.1- 53.2---
2026-08-30 10:02 pm N 4.1 7.0----29.83- 54.3- 53.4---
2026-08-30 09:52 pmNNW 4.1 5.1----29.83- 54.1- 53.2---
2026-08-30 09:42 pmNNW 2.9 4.1----29.83- 54.3- 53.4---
2026-08-30 09:32 pmNNW 1.9 2.9----29.83- 54.3- 53.4---
2026-08-30 09:22 pm- 0.0 1.9----29.83- 54.3- 53.4---
2026-08-30 09:12 pmESE 1.9 1.9----29.83- 54.5- 53.6---
2026-08-30 09:02 pmESE 1.0 1.9----29.83- 54.5- 53.6---
2026-08-30 08:52 pm- 0.0 1.9----29.84- 54.7- 53.8---
2026-08-30 08:42 pm N 1.9 4.1----29.84- 54.5- 53.6---
2026-08-30 08:32 pm N 2.9 4.1----29.84- 54.5- 53.6---
2026-08-30 08:22 pmNNW 1.9 2.9----29.84- 54.5- 53.6---
2026-08-30 08:12 pm E 1.0 2.9----29.84- 55.0- 54.1---
2026-08-30 08:02 pm SE 2.9 5.1----29.84- 54.9- 54.0---
2026-08-30 07:52 pmSSE 4.1 6.0----29.84- 54.9- 54.0---
2026-08-30 07:42 pmSSE 2.9 5.1----29.84- 55.2- 54.1---
2026-08-30 07:32 pm SE 2.9 5.1----29.84- 55.8- 54.3---
2026-08-30 07:22 pmESE 2.9 4.1----29.84- 55.9- 54.5---
2026-08-30 07:12 pm E 1.9 5.1----29.84- 55.9- 54.3---
2026-08-30 07:02 pmSSE 1.9 4.1----29.84- 55.8- 54.3---
2026-08-30 06:52 pmSSE 1.9 2.9----29.84- 55.0- 53.6---
2026-08-30 06:42 pm N 1.0 4.1----29.84- 54.9- 53.8---
2026-08-30 06:32 pmNNE 1.0 2.9----29.85- 55.0- 54.0---
2026-08-30 06:22 pmNNW 1.0 2.9----29.85- 55.0- 54.0---
2026-08-30 06:12 pm- 0.0 2.9----29.85- 55.0- 54.0---
2026-08-30 06:02 pmWNW 1.0 2.9----29.85- 54.9- 53.8---
2026-08-30 05:52 pm- 0.0 1.9----29.85- 55.0- 54.0---
2026-08-30 05:42 pm N 1.0 4.1----29.85- 55.0- 54.1---
2026-08-30 05:32 pm NW 4.1 5.1----29.85- 54.7- 53.8---
2026-08-30 05:22 pm NW 2.9 4.1----29.85- 54.7- 53.6---
2026-08-30 05:12 pm NW 2.9 4.1----29.85- 54.7- 53.6---
2026-08-30 05:02 pm NW 1.9 2.9----29.85- 54.7- 53.2---
2026-08-30 04:52 pm NW 1.9 2.9----29.85- 55.0- 53.6---
2026-08-30 04:42 pmWNW 1.0 1.9----29.85- 55.4- 53.8---
2026-08-30 04:32 pm- 0.0 1.9----29.86- 55.8- 54.1---
2026-08-30 04:22 pmSSE 1.9 1.9----29.86- 55.8- 54.1---
2026-08-30 04:12 pmSSE 1.9 2.9----29.86- 55.9- 54.0---
2026-08-30 04:02 pmSSE 1.9 2.9----29.86- 55.9- 54.0---
2026-08-30 03:52 pm SE 2.9 4.1----29.86- 56.1- 54.1---
2026-08-30 03:42 pm SE 4.1 7.0----29.87- 56.1- 54.1---
2026-08-30 03:32 pm SE 6.0 8.0----29.87- 56.1- 54.5---
2026-08-30 03:22 pm SE 4.1 6.0----29.87- 56.1- 54.5---
2026-08-30 03:12 pm SE 4.1 6.0----29.87- 56.5- 54.5---
2026-08-30 03:02 pm SE 4.1 6.0----29.87- 57.0- 54.1---
2026-08-30 02:52 pm SE 2.9 6.0----29.87- 57.0- 54.5---
2026-08-30 02:42 pm SE 6.0 8.0----29.87- 56.8- 54.9---
2026-08-30 02:32 pm SE 4.1 7.0----29.87- 57.0- 54.7---
2026-08-30 02:22 pm SE 5.1 6.0----29.87- 57.0- 54.7---
2026-08-30 02:12 pm SE 5.1 8.0----29.87- 57.2- 54.3---
2026-08-30 02:02 pmESE 4.1 7.0----29.87- 57.0- 54.7---
2026-08-30 01:52 pmESE 2.9 6.0----29.87- 56.8- 54.9---
2026-08-30 01:42 pmESE 5.1 11.1----29.87- 56.5- 54.5---
2026-08-30 01:32 pm SE 7.0 11.1----29.87- 56.1- 54.1---
2026-08-30 01:22 pm SE 7.0 9.9----29.87- 56.1- 54.5---
2026-08-30 01:12 pm SE 6.0 9.9----29.87- 56.1- 54.7---
2026-08-30 01:02 pmESE 5.1 8.9----29.87- 56.1- 55.0---
2026-08-30 12:52 pm SE 6.0 9.9----29.87- 55.8- 54.9---
2026-08-30 12:42 pmESE 5.1 8.9----29.87- 56.1- 55.2---
2026-08-30 12:32 pm SE 7.0 9.9----29.88- 55.6- 54.7---
2026-08-30 12:22 pm SE 8.0 11.1----29.87- 55.6- 54.7---
2026-08-30 12:12 pm SE 7.0 11.1----29.87- 55.6- 54.7---
2026-08-30 12:02 pm SE 6.0 9.9----29.87- 55.6- 55.0---
2026-08-30 11:52 am SE 6.0 11.1----29.87- 55.4- 54.9---
2026-08-30 11:42 am SE 7.0 9.9----29.87- 55.2- 54.7---
2026-08-30 11:32 am SE 6.0 9.9----29.87- 55.0- 54.5---
2026-08-30 11:22 am SE 6.0 9.9----29.87- 55.0- 54.5---
2026-08-30 11:12 am SE 7.0 8.9----29.86- 55.2- 54.7---
2026-08-30 11:02 am SE 5.1 8.0----29.86- 55.2- 54.9---
2026-08-30 10:52 am SE 6.0 8.0----29.86- 55.2- 54.9---
2026-08-30 10:42 amSSE 5.1 7.0----29.86- 55.0- 54.7---
2026-08-30 10:32 am S 5.1 7.0----29.86- 54.9- 54.5---
2026-08-30 10:22 amSSE 4.1 7.0----29.86- 54.9- 54.5---
2026-08-30 10:12 am SE 5.1 8.0----29.85- 55.2- 54.9---
2026-08-30 10:02 am SE 7.0 9.9----29.85- 55.2- 54.9---
2026-08-30 09:52 am SE 8.0 14.0----29.85- 55.0- 54.7---
2026-08-30 09:42 am SE 11.1 17.1----29.84- 55.0- 54.7---
2026-08-30 09:32 am SE 11.1 15.9----29.84- 55.0- 54.7---
2026-08-30 09:22 am SE 11.1 15.9----29.84- 55.0- 54.5---
2026-08-30 09:12 am SE 9.9 15.0----29.84- 55.0- 54.5---
2026-08-30 09:02 am SE 9.9 15.9----29.83- 55.0- 54.5---
2026-08-30 08:52 amESE 9.9 15.9----29.83- 55.0- 54.5---